Time;durP1;ratioP1;P1;durP2;ratioP2;P2;SDS_P1;SDS_P2;PMS_P1;PMS_P2;Temp;Humidity;BMP_temperature;BMP_pressure;BME280_temperature;BME280_humidity;BME280_pressure;Samples;Min_cycle;Max_cycle;Signal;HPM_P1;HPM_P2
2022/01/19 01:24:19;;;;;;;10.70;6.60;;;4.10;99.90;;;;;;4745183;30;20280;-86
2022/01/19 01:26:48;;;;;;;11.95;7.35;;;4.00;99.90;;;;;;4800696;29;20218;-86
2022/01/19 01:29:37;;;;;;;11.68;7.47;;;4.00;99.90;;;;;;4969619;29;20238;-87
2022/01/19 01:32:11;;;;;;;11.70;7.63;;;4.10;99.90;;;;;;4964606;29;20182;-86
2022/01/19 01:34:43;;;;;;;11.93;7.43;;;4.10;99.90;;;;;;4963424;29;20209;-86
2022/01/19 01:40:36;;;;;;;13.50;8.20;;;4.00;99.90;;;;;;4957463;28;20221;-85
2022/01/19 01:43:28;;;;;;;;;;;;;;;;;;;;;
2022/01/19 01:46:09;;;;;;;13.95;8.55;;;3.80;99.90;;;;;;4973773;28;20193;-86
2022/01/19 01:48:42;;;;;;;12.10;7.07;;;3.80;99.90;;;;;;5026617;23;20235;-87
2022/01/19 01:53:55;;;;;;;12.90;8.15;;;3.30;99.90;;;;;;4983182;28;20196;-88
2022/01/19 01:56:22;;;;;;;17.33;8.20;;;3.80;99.90;;;;;;4982192;28;20297;-89
2022/01/19 01:58:50;;;;;;;14.02;9.27;;;3.60;99.90;;;;;;4982721;28;20262;-88
2022/01/19 02:01:18;;;;;;;12.70;7.97;;;3.30;99.90;;;;;;4992607;28;20212;-89
2022/01/19 02:03:46;;;;;;;15.00;8.35;;;3.10;99.90;;;;;;4986565;28;20291;-89
2022/01/19 02:06:38;;;;;;;13.70;8.38;;;3.10;99.90;;;;;;4983132;28;20577;-88
2022/01/19 02:09:09;;;;;;;15.90;8.75;;;3.00;99.90;;;;;;4985072;28;20227;-88
2022/01/19 02:22:58;;;;;;;11.27;7.93;;;3.50;99.90;;;;;;4990718;28;20240;-89
2022/01/19 02:25:28;;;;;;;18.20;7.68;;;3.40;99.90;;;;;;5001459;28;20205;-88
2022/01/19 02:41:40;;;;;;;14.57;8.02;;;3.60;99.90;;;;;;4971356;28;20204;-87
2022/01/19 02:44:09;;;;;;;12.82;7.95;;;3.50;99.90;;;;;;4986904;28;20229;-88
2022/01/19 02:46:53;;;;;;;12.90;8.57;;;3.60;99.90;;;;;;4986691;28;20209;-88
2022/01/19 02:49:21;;;;;;;14.07;7.63;;;3.50;99.90;;;;;;4987080;28;20230;-88
2022/01/19 02:51:52;;;;;;;15.02;8.20;;;3.70;99.90;;;;;;4986287;28;20228;-88
2022/01/19 02:54:22;;;;;;;11.02;8.25;;;3.20;99.90;;;;;;4985906;28;20205;-88
2022/01/19 02:56:51;;;;;;;14.00;8.88;;;3.70;99.90;;;;;;4985028;28;20299;-88
2022/01/19 02:59:24;;;;;;;15.50;9.13;;;3.60;99.90;;;;;;4984666;28;20217;-88
2022/01/19 03:10:07;;;;;;;13.85;8.50;;;3.40;99.90;;;;;;4980707;28;20228;-88
2022/01/19 03:12:34;;;;;;;13.95;9.07;;;3.50;99.90;;;;;;4982328;28;20289;-88
2022/01/19 03:15:01;;;;;;;11.48;9.02;;;3.20;99.90;;;;;;4983716;28;20295;-87
2022/01/19 03:17:28;;;;;;;12.40;8.25;;;2.90;99.90;;;;;;4982770;28;20248;-88
2022/01/19 03:19:55;;;;;;;15.02;8.93;;;2.60;99.90;;;;;;4979829;28;20241;-87
2022/01/19 03:22:28;;;;;;;13.68;10.00;;;3.30;99.90;;;;;;4981276;28;20200;-88
2022/01/19 03:24:55;;;;;;;13.82;9.27;;;3.00;99.90;;;;;;4983161;28;20215;-87
2022/01/19 03:27:22;;;;;;;13.98;9.55;;;2.90;99.90;;;;;;4994395;28;20213;-86
2022/01/19 03:29:49;;;;;;;14.50;9.60;;;3.30;99.90;;;;;;4996841;28;20244;-89
2022/01/19 03:32:15;;;;;;;13.95;9.68;;;3.30;99.90;;;;;;4986229;28;20691;-87
2022/01/19 03:34:43;;;;;;;13.55;7.85;;;2.80;99.90;;;;;;4987791;28;20248;-86
2022/01/19 03:37:11;;;;;;;13.50;9.30;;;2.90;99.90;;;;;;4984142;28;20307;-87
2022/01/19 03:39:39;;;;;;;16.73;8.75;;;3.10;99.90;;;;;;4980836;28;20240;-86
2022/01/19 03:42:07;;;;;;;14.80;9.13;;;3.30;99.90;;;;;;4985066;28;20280;-87
2022/01/19 03:44:34;;;;;;;13.90;9.27;;;3.20;99.90;;;;;;4987081;28;20573;-87
2022/01/19 03:47:03;;;;;;;16.77;10.02;;;3.10;99.90;;;;;;4984194;28;20644;-87
2022/01/19 03:49:33;;;;;;;14.63;9.23;;;3.30;99.90;;;;;;4984184;28;20236;-87
2022/01/19 03:52:02;;;;;;;21.17;9.68;;;3.00;99.90;;;;;;4993469;28;20272;-87
2022/01/19 03:54:31;;;;;;;17.35;9.93;;;2.70;99.90;;;;;;4990486;28;20216;-88
2022/01/19 03:56:59;;;;;;;13.35;9.65;;;3.20;99.90;;;;;;4985902;28;20221;-88
2022/01/19 03:59:27;;;;;;;14.77;9.95;;;2.60;99.90;;;;;;4984640;28;20288;-86
2022/01/19 04:01:54;;;;;;;14.50;9.70;;;2.50;99.90;;;;;;4981191;28;20272;-87
2022/01/19 04:04:34;;;;;;;14.35;9.27;;;2.90;99.90;;;;;;4988686;28;20272;-87
2022/01/19 04:07:08;;;;;;;16.20;10.70;;;2.50;99.90;;;;;;4980161;28;20326;-87
2022/01/19 04:09:36;;;;;;;15.65;9.05;;;2.30;99.90;;;;;;4981005;28;20220;-88
2022/01/19 04:12:06;;;;;;;15.48;9.68;;;2.80;99.90;;;;;;4980896;28;20292;-87
2022/01/19 04:14:33;;;;;;;16.50;10.20;;;2.90;99.90;;;;;;4981895;28;20301;-87
2022/01/19 04:17:01;;;;;;;16.55;9.68;;;3.10;99.90;;;;;;4980492;28;20224;-88
2022/01/19 04:19:31;;;;;;;16.38;8.95;;;2.90;99.90;;;;;;4982816;28;20215;-89
2022/01/19 04:22:00;;;;;;;14.93;9.15;;;3.00;99.90;;;;;;4986549;28;20637;-89
2022/01/19 04:24:28;;;;;;;15.93;9.25;;;2.90;99.90;;;;;;4985133;28;20214;-88
2022/01/19 04:29:42;;;;;;;11.23;7.78;;;2.90;99.90;;;;;;4994630;28;20208;-88
2022/01/19 04:32:13;;;;;;;15.48;9.70;;;3.00;99.90;;;;;;4993989;28;20201;-89
2022/01/19 04:34:41;;;;;;;17.10;9.07;;;3.00;99.90;;;;;;4995834;28;20269;-88
2022/01/19 04:37:43;;;;;;;17.45;9.18;;;3.10;99.90;;;;;;4989801;28;20225;-88
2022/01/19 04:46:04;;;;;;;18.58;9.40;;;2.80;99.90;;;;;;4984749;28;20269;-89
2022/01/19 05:02:27;;;;;;;24.23;11.95;;;2.80;99.90;;;;;;4984078;28;20220;-90
2022/01/19 05:05:06;;;;;;;22.05;9.77;;;2.80;99.90;;;;;;4983703;28;20232;-88
2022/01/19 05:07:38;;;;;;;18.25;11.15;;;2.80;99.90;;;;;;4983498;28;20225;-89
2022/01/19 05:13:24;;;;;;;19.58;11.23;;;2.90;99.90;;;;;;4983006;28;20217;-89
2022/01/19 05:15:38;;;;;;;21.73;11.65;;;2.80;99.90;;;;;;4983950;28;20299;-88
2022/01/19 05:18:07;;;;;;;13.80;9.48;;;2.90;99.90;;;;;;4985239;28;20244;-89
2022/01/19 05:20:34;;;;;;;17.40;10.50;;;2.90;99.90;;;;;;4983689;28;20256;-88
2022/01/19 05:23:01;;;;;;;17.80;11.77;;;2.80;99.90;;;;;;4987634;28;20228;-89
2022/01/19 05:25:28;;;;;;;16.83;9.95;;;2.90;99.90;;;;;;4984829;28;20279;-88
2022/01/19 05:27:55;;;;;;;16.67;10.32;;;2.90;99.90;;;;;;4982113;28;20320;-89
2022/01/19 05:30:23;;;;;;;22.77;11.48;;;2.80;99.90;;;;;;4981759;28;20781;-89
2022/01/19 05:32:50;;;;;;;17.52;9.80;;;3.10;99.90;;;;;;4981352;28;20202;-88
2022/01/19 05:35:18;;;;;;;16.25;10.30;;;3.20;99.90;;;;;;4981625;28;20614;-88
2022/01/19 05:37:45;;;;;;;18.13;10.60;;;3.20;99.90;;;;;;4981238;28;20586;-88
2022/01/19 05:40:14;;;;;;;17.98;9.85;;;2.60;99.90;;;;;;4977351;28;20291;-88
2022/01/19 05:42:42;;;;;;;14.80;9.85;;;3.10;99.90;;;;;;4977286;28;20241;-88
2022/01/19 05:45:10;;;;;;;18.15;9.20;;;2.80;99.90;;;;;;4978220;28;20204;-89
2022/01/19 05:47:37;;;;;;;17.95;10.02;;;3.10;99.90;;;;;;4978596;28;20327;-88
2022/01/19 05:50:05;;;;;;;17.60;10.50;;;3.20;99.90;;;;;;4979329;28;20284;-88
2022/01/19 05:52:34;;;;;;;19.48;10.07;;;3.20;99.90;;;;;;4978848;28;20561;-88
2022/01/19 05:55:01;;;;;;;16.90;11.30;;;2.80;99.90;;;;;;4979649;28;20650;-89
2022/01/19 05:57:28;;;;;;;14.77;10.32;;;3.20;99.90;;;;;;4982720;28;20433;-88
2022/01/19 05:59:55;;;;;;;14.52;10.23;;;3.00;99.90;;;;;;4989437;28;20212;-89
2022/01/19 06:02:22;;;;;;;14.25;9.27;;;3.00;99.90;;;;;;4981836;28;20216;-89
2022/01/19 06:04:50;;;;;;;23.42;11.93;;;3.00;99.90;;;;;;4979145;28;20246;-88
2022/01/19 06:07:17;;;;;;;15.70;9.13;;;3.00;99.90;;;;;;4980520;28;20264;-88
2022/01/19 06:10:00;;;;;;;13.95;9.63;;;3.00;99.90;;;;;;4979471;28;20241;-88
2022/01/19 06:12:27;;;;;;;16.60;9.90;;;2.60;99.90;;;;;;4980365;28;20296;-89
2022/01/19 06:14:55;;;;;;;16.98;10.25;;;2.70;99.90;;;;;;4980264;28;20634;-89
2022/01/19 06:17:22;;;;;;;14.98;10.18;;;2.50;99.90;;;;;;4978732;28;20221;-88
2022/01/19 06:19:49;;;;;;;18.05;9.68;;;3.10;99.90;;;;;;4982565;28;20225;-89
2022/01/19 06:22:17;;;;;;;20.83;10.60;;;2.60;99.90;;;;;;4995284;28;20193;-88
2022/01/19 06:24:46;;;;;;;16.02;10.23;;;2.40;99.90;;;;;;4992255;28;20217;-87
2022/01/19 06:27:13;;;;;;;16.67;10.07;;;2.40;99.90;;;;;;4983460;28;20238;-88
2022/01/19 06:29:40;;;;;;;15.02;10.20;;;2.90;99.90;;;;;;4983168;28;20217;-88
2022/01/19 06:32:07;;;;;;;14.23;9.82;;;2.70;99.90;;;;;;4984046;28;20202;-88
2022/01/19 06:34:35;;;;;;;15.48;8.93;;;2.80;99.90;;;;;;4990692;28;20197;-88
2022/01/19 06:37:02;;;;;;;20.42;9.95;;;2.30;99.90;;;;;;4996571;28;20217;-88
2022/01/19 06:39:29;;;;;;;15.77;9.20;;;2.70;99.90;;;;;;4989076;28;20251;-88
2022/01/19 06:41:58;;;;;;;15.50;11.05;;;2.40;99.90;;;;;;4994397;28;20205;-89
2022/01/19 06:44:24;;;;;;;17.23;10.20;;;2.70;99.90;;;;;;4985037;28;20232;-86
2022/01/19 06:46:52;;;;;;;17.02;9.70;;;2.80;99.90;;;;;;4984229;28;20327;-87
2022/01/19 06:49:19;;;;;;;17.33;10.35;;;2.50;99.90;;;;;;4980816;28;20224;-88
2022/01/19 06:51:46;;;;;;;17.95;10.73;;;2.60;99.90;;;;;;4977888;28;20241;-88
2022/01/19 06:54:13;;;;;;;18.42;10.73;;;2.20;99.90;;;;;;4979973;28;20710;-88
2022/01/19 06:56:40;;;;;;;21.95;10.98;;;2.30;99.90;;;;;;4982497;28;20210;-88
2022/01/19 06:59:08;;;;;;;18.95;10.95;;;2.20;99.90;;;;;;4981701;28;20232;-88
2022/01/19 07:01:36;;;;;;;19.67;11.73;;;2.30;99.90;;;;;;4982624;28;20625;-89
2022/01/19 07:04:05;;;;;;;13.02;9.18;;;2.20;99.90;;;;;;4982617;28;20268;-89
2022/01/19 07:06:32;;;;;;;19.58;10.13;;;2.50;99.90;;;;;;4984076;28;20263;-89
2022/01/19 07:08:59;;;;;;;18.27;11.27;;;2.10;99.90;;;;;;4984075;28;20229;-88
2022/01/19 07:11:26;;;;;;;17.20;11.63;;;2.30;99.90;;;;;;4984467;28;20248;-87
2022/01/19 07:13:54;;;;;;;15.02;11.13;;;2.30;99.90;;;;;;4987816;28;20228;-88
2022/01/19 07:16:22;;;;;;;17.98;10.40;;;2.80;99.90;;;;;;4984992;28;20321;-87
2022/01/19 07:18:49;;;;;;;17.75;10.52;;;2.90;99.90;;;;;;4983313;28;20267;-87
2022/01/19 07:21:16;;;;;;;24.90;11.68;;;2.30;99.90;;;;;;4981709;28;20614;-88
2022/01/19 07:23:44;;;;;;;14.70;10.38;;;2.70;99.90;;;;;;4983258;28;20297;-87
2022/01/19 07:26:12;;;;;;;18.25;11.07;;;2.90;99.90;;;;;;4982830;28;20205;-86
2022/01/19 07:28:39;;;;;;;21.63;10.57;;;2.90;99.90;;;;;;4984499;28;20714;-89
2022/01/19 07:31:06;;;;;;;18.80;9.82;;;2.70;99.90;;;;;;4985374;28;20288;-87
2022/01/19 07:33:35;;;;;;;16.20;10.02;;;3.00;99.90;;;;;;4982923;28;20209;-89
2022/01/19 07:36:02;;;;;;;17.08;11.68;;;2.40;99.90;;;;;;4982417;28;20644;-89
2022/01/19 07:38:29;;;;;;;20.35;10.70;;;2.60;99.90;;;;;;4982844;28;20236;-88
2022/01/19 07:40:57;;;;;;;19.40;11.27;;;2.70;99.90;;;;;;4984508;28;20229;-89
2022/01/19 07:43:27;;;;;;;18.38;10.25;;;2.30;99.90;;;;;;4982622;28;20583;-88
2022/01/19 07:45:55;;;;;;;20.13;11.43;;;2.30;99.90;;;;;;4983714;28;20644;-88
2022/01/19 07:48:21;;;;;;;16.42;11.48;;;2.90;99.90;;;;;;4998985;23;20597;-87
2022/01/19 07:50:50;;;;;;;20.48;11.88;;;2.90;99.90;;;;;;4990476;28;20224;-87
2022/01/19 07:53:17;;;;;;;25.48;12.82;;;2.70;99.90;;;;;;4998395;28;20220;-87
2022/01/19 07:55:45;;;;;;;19.20;11.35;;;2.70;99.90;;;;;;4998969;28;20204;-87
2022/01/19 07:58:12;;;;;;;21.13;11.85;;;2.80;99.90;;;;;;4990608;28;20229;-87
2022/01/19 08:00:53;;;;;;;20.15;12.75;;;2.60;99.90;;;;;;4993409;28;20209;-89
2022/01/19 08:03:20;;;;;;;25.85;12.65;;;2.50;99.90;;;;;;4996689;28;20293;-88
2022/01/19 08:05:47;;;;;;;23.13;12.98;;;2.40;99.90;;;;;;4988795;28;20208;-88
2022/01/19 08:08:15;;;;;;;21.33;12.82;;;2.60;99.90;;;;;;4998958;28;20253;-89
2022/01/19 08:10:45;;;;;;;27.33;13.73;;;2.70;99.90;;;;;;4993153;28;20296;-88
2022/01/19 08:13:14;;;;;;;23.17;13.38;;;2.60;99.90;;;;;;4997691;28;20228;-88
2022/01/19 08:15:41;;;;;;;22.48;12.20;;;2.70;99.90;;;;;;4988137;28;20288;-88
2022/01/19 08:18:08;;;;;;;23.08;14.32;;;2.80;99.90;;;;;;4989317;28;20224;-88
2022/01/19 08:20:35;;;;;;;25.50;14.38;;;2.90;99.90;;;;;;4985584;28;20201;-88
2022/01/19 08:23:05;;;;;;;22.58;14.23;;;3.10;99.90;;;;;;4986410;28;20208;-87
2022/01/19 08:25:33;;;;;;;19.80;12.65;;;3.10;99.90;;;;;;4985323;28;20219;-89
2022/01/19 08:28:03;;;;;;;18.98;12.82;;;2.50;99.90;;;;;;4985116;28;20315;-88
2022/01/19 08:30:30;;;;;;;21.83;14.10;;;3.00;99.90;;;;;;4985739;28;20740;-87
2022/01/19 08:32:57;;;;;;;24.17;13.13;;;3.30;99.90;;;;;;4988294;28;20232;-88
2022/01/19 08:35:24;;;;;;;19.52;12.50;;;3.20;99.90;;;;;;4987797;28;20212;-87
2022/01/19 08:51:21;;;;;;;21.92;14.20;;;3.40;99.90;;;;;;4984409;28;20713;-89
2022/01/19 08:53:48;;;;;;;18.98;12.55;;;3.40;99.90;;;;;;4985315;28;20580;-87
2022/01/19 08:56:17;;;;;;;22.77;13.75;;;3.40;99.90;;;;;;4985534;28;20276;-89
2022/01/19 08:58:44;;;;;;;19.35;12.68;;;3.50;99.90;;;;;;4990150;28;20243;-87
2022/01/19 09:01:10;;;;;;;22.52;14.00;;;3.50;99.90;;;;;;4984718;28;20260;-89
2022/01/19 09:03:37;;;;;;;20.05;14.32;;;3.60;99.90;;;;;;4986471;28;20228;-88
2022/01/19 09:06:04;;;;;;;20.85;13.90;;;3.70;99.90;;;;;;4987761;28;20793;-88
2022/01/19 09:08:34;;;;;;;23.42;13.27;;;3.70;99.90;;;;;;4993998;28;20255;-87
2022/01/19 09:11:01;;;;;;;20.23;12.65;;;3.80;99.90;;;;;;4987981;28;20752;-88
2022/01/19 09:13:28;;;;;;;22.10;13.20;;;3.80;99.90;;;;;;4985587;28;20205;-89
2022/01/19 09:15:56;;;;;;;21.77;12.60;;;4.10;99.90;;;;;;4984642;28;20262;-89
2022/01/19 09:18:23;;;;;;;23.42;13.85;;;4.00;99.90;;;;;;4985663;28;20317;-89
2022/01/19 09:20:50;;;;;;;23.75;13.10;;;4.10;99.90;;;;;;4985529;28;20287;-87
2022/01/19 09:23:17;;;;;;;19.20;12.05;;;4.50;99.90;;;;;;4991226;28;20213;-87
2022/01/19 09:25:46;;;;;;;19.75;13.60;;;4.60;99.90;;;;;;4985230;28;20319;-89
2022/01/19 09:28:13;;;;;;;20.23;13.45;;;4.60;99.90;;;;;;4985670;28;20229;-88
2022/01/19 09:30:41;;;;;;;17.83;11.98;;;4.20;99.90;;;;;;4991334;28;20197;-87
2022/01/19 09:33:11;;;;;;;20.40;12.32;;;4.50;99.90;;;;;;4989107;28;20217;-87
2022/01/19 09:35:53;;;;;;;26.02;14.30;;;4.20;99.90;;;;;;4987762;28;20645;-88
2022/01/19 09:38:23;;;;;;;22.83;13.93;;;4.60;99.90;;;;;;4985200;28;20237;-88
2022/01/19 09:40:51;;;;;;;22.77;13.18;;;4.40;99.90;;;;;;4985051;28;20582;-87
2022/01/19 09:43:21;;;;;;;19.63;11.82;;;4.80;99.90;;;;;;4983931;28;20206;-88
2022/01/19 09:45:49;;;;;;;19.95;11.60;;;4.90;99.90;;;;;;4984729;28;20626;-88
2022/01/19 09:48:16;;;;;;;15.23;11.07;;;5.00;99.90;;;;;;4987117;28;20261;-87
2022/01/19 09:50:43;;;;;;;16.38;11.35;;;5.00;99.90;;;;;;4986550;28;20643;-88
2022/01/19 09:53:11;;;;;;;17.17;10.98;;;5.10;99.90;;;;;;4984965;28;20205;-88
2022/01/19 09:55:39;;;;;;;20.98;11.05;;;5.10;99.90;;;;;;4998066;28;20189;-87
2022/01/19 09:58:08;;;;;;;23.52;12.27;;;4.90;99.90;;;;;;4997467;28;20253;-88
2022/01/19 10:00:36;;;;;;;15.68;10.77;;;5.20;99.90;;;;;;4998017;28;20223;-87
2022/01/19 10:03:14;;;;;;;16.38;10.25;;;5.30;99.90;;;;;;4997964;28;20201;-88
2022/01/19 10:05:55;;;;;;;15.35;10.27;;;5.30;99.90;;;;;;4987971;28;20197;-88
2022/01/19 10:08:35;;;;;;;15.02;10.25;;;5.60;99.90;;;;;;4983752;28;20227;-88
2022/01/19 10:11:09;;;;;;;15.60;10.70;;;5.60;99.90;;;;;;4985897;28;20236;-88
2022/01/19 10:19:14;;;;;;;14.20;10.30;;;5.30;99.90;;;;;;4978074;28;20311;-87
2022/01/19 10:22:00;;;;;;;16.25;11.30;;;5.90;99.90;;;;;;4986702;28;20206;-88
2022/01/19 10:24:39;;;;;;;13.80;10.15;;;6.00;99.90;;;;;;4983364;28;20226;-88
2022/01/19 10:27:35;;;;;;;13.00;9.10;;;6.00;99.90;;;;;;4985664;28;20200;-89
2022/01/19 10:30:26;;;;;;;17.83;10.43;;;5.70;99.90;;;;;;4990590;28;20211;-88
2022/01/19 10:32:56;;;;;;;17.45;11.15;;;6.10;99.90;;;;;;4992385;28;20246;-88
2022/01/19 10:35:29;;;;;;;19.35;11.73;;;6.20;99.90;;;;;;4990511;28;20210;-88
2022/01/19 10:38:15;;;;;;;14.20;10.05;;;6.30;99.90;;;;;;4989948;28;20269;-89
2022/01/19 10:40:44;;;;;;;16.38;10.32;;;6.50;99.90;;;;;;4988335;28;20283;-89
2022/01/19 10:43:30;;;;;;;19.63;10.55;;;6.50;99.90;;;;;;4990694;28;20247;-89
2022/01/19 10:46:23;;;;;;;17.88;12.73;;;6.60;99.90;;;;;;4990286;28;20199;-88
2022/01/19 10:48:58;;;;;;;15.25;10.07;;;6.50;99.90;;;;;;4994813;28;20236;-89
2022/01/19 10:51:29;;;;;;;13.80;10.00;;;6.60;99.90;;;;;;4990003;28;20662;-88
2022/01/19 10:54:09;;;;;;;12.05;8.65;;;6.60;99.90;;;;;;4987476;28;20210;-88
2022/01/19 10:56:36;;;;;;;16.92;10.35;;;6.20;99.90;;;;;;4986522;28;20688;-87
2022/01/19 10:59:06;;;;;;;16.55;9.90;;;6.70;99.90;;;;;;4988440;28;20231;-87
2022/01/19 11:01:40;;;;;;;14.68;10.10;;;6.70;99.90;;;;;;4993391;28;20206;-86
2022/01/19 11:04:35;;;;;;;16.10;10.48;;;6.80;99.90;;;;;;4996244;28;20213;-86
2022/01/19 11:07:04;;;;;;;14.85;9.32;;;6.40;99.90;;;;;;4991331;28;20264;-88
2022/01/19 11:09:34;;;;;;;19.33;11.27;;;6.90;99.90;;;;;;4989793;28;20281;-87
2022/01/19 11:12:06;;;;;;;15.07;10.98;;;6.50;99.90;;;;;;4987775;28;20220;-88
2022/01/19 11:14:35;;;;;;;14.82;11.32;;;6.90;99.90;;;;;;4989592;28;20226;-88
2022/01/19 11:17:04;;;;;;;18.52;11.00;;;6.70;99.90;;;;;;4995106;28;20209;-88
2022/01/19 11:19:31;;;;;;;17.95;10.18;;;7.00;99.90;;;;;;5000106;28;20215;-87
2022/01/19 11:22:16;;;;;;;16.90;10.88;;;7.00;99.90;;;;;;4998914;28;20204;-87
2022/01/19 11:24:57;;;;;;;15.15;10.23;;;7.10;99.90;;;;;;4991797;28;20192;-88
2022/01/19 11:27:28;;;;;;;14.32;10.30;;;6.60;99.90;;;;;;4990452;28;20188;-88
2022/01/19 11:30:19;;;;;;;14.00;9.02;;;6.90;99.90;;;;;;4991354;28;20231;-87
2022/01/19 11:33:13;;;;;;;18.10;11.48;;;6.60;99.90;;;;;;4997530;28;20243;-87
2022/01/19 11:35:42;;;;;;;14.50;9.98;;;7.00;99.90;;;;;;4990330;28;20199;-88
2022/01/19 11:38:31;;;;;;;16.38;11.35;;;7.10;99.90;;;;;;4989847;28;20246;-87
2022/01/19 11:40:58;;;;;;;16.00;12.23;;;7.30;99.90;;;;;;4987633;28;20234;-87
2022/01/19 11:43:29;;;;;;;19.90;12.27;;;7.20;99.90;;;;;;4988096;28;20208;-87
2022/01/19 11:45:56;;;;;;;17.52;11.20;;;6.90;99.90;;;;;;4988834;28;20251;-88
2022/01/19 11:48:28;;;;;;;15.70;11.35;;;7.10;99.90;;;;;;4998402;28;20247;-88
2022/01/19 11:51:22;;;;;;;17.98;11.48;;;7.30;99.90;;;;;;4999596;28;20196;-87
2022/01/19 11:54:17;;;;;;;20.00;13.13;;;7.10;99.90;;;;;;4991669;28;20214;-88
2022/01/19 11:57:08;;;;;;;20.98;9.93;;;7.10;99.90;;;;;;4997808;28;20195;-87
2022/01/19 12:00:18;;;;;;;18.90;11.68;;;6.90;99.90;;;;;;4991670;28;20239;-87
2022/01/19 12:02:48;;;;;;;20.85;13.48;;;6.90;99.90;;;;;;4989718;28;20222;-88
2022/01/19 12:05:25;;;;;;;18.00;13.20;;;6.90;99.90;;;;;;4988111;28;20650;-88
2022/01/19 12:07:55;;;;;;;21.90;12.63;;;6.80;99.90;;;;;;4988746;28;20239;-88
2022/01/19 12:10:42;;;;;;;17.98;12.10;;;7.00;99.90;;;;;;4990406;28;20196;-88
2022/01/19 12:13:44;;;;;;;14.55;7.60;;;7.20;99.90;;;;;;4998926;28;20421;-89
2022/01/19 12:16:27;;;;;;;10.95;5.45;;;6.50;99.90;;;;;;4992522;28;20191;-89
2022/01/19 12:18:55;;;;;;;17.23;9.30;;;6.80;99.90;;;;;;4989067;28;20235;-88
2022/01/19 12:21:47;;;;;;;13.80;8.55;;;6.70;99.90;;;;;;4987608;28;20215;-88
2022/01/19 12:24:22;;;;;;;17.20;10.05;;;6.30;99.90;;;;;;4990721;28;20197;-88
2022/01/19 12:27:03;;;;;;;9.98;5.65;;;6.60;99.90;;;;;;4991492;28;20203;-87
2022/01/19 12:29:39;;;;;;;13.88;7.45;;;6.60;99.90;;;;;;4990457;28;20261;-89
2022/01/19 12:32:09;;;;;;;17.27;11.10;;;6.40;99.90;;;;;;4987246;28;20299;-88
2022/01/19 12:34:43;;;;;;;16.50;9.77;;;6.10;99.90;;;;;;4987150;28;20223;-88
2022/01/19 12:37:12;;;;;;;17.25;10.50;;;6.50;99.90;;;;;;4984336;28;20215;-88
2022/01/19 12:39:43;;;;;;;16.65;10.23;;;6.60;99.90;;;;;;4985256;28;20219;-90
2022/01/19 12:42:18;;;;;;;18.05;10.10;;;6.50;99.90;;;;;;4983820;28;20275;-88
2022/01/19 12:44:48;;;;;;;17.40;11.23;;;6.80;99.90;;;;;;4987215;28;20239;-87
2022/01/19 12:47:44;;;;;;;14.88;7.72;;;6.70;99.90;;;;;;4988033;28;20239;-89
2022/01/19 12:50:44;;;;;;;16.48;10.48;;;6.90;99.90;;;;;;4986647;28;20188;-88
2022/01/19 12:53:16;;;;;;;18.83;10.80;;;6.70;99.90;;;;;;4986308;28;20219;-87
2022/01/19 12:55:46;;;;;;;16.55;9.20;;;6.80;99.90;;;;;;4985351;28;20230;-88
2022/01/19 12:58:18;;;;;;;17.98;11.20;;;6.80;99.90;;;;;;4995449;28;20266;-88
2022/01/19 13:00:50;;;;;;;13.65;9.10;;;7.10;99.90;;;;;;4991775;28;20195;-86
2022/01/19 13:03:21;;;;;;;12.73;9.20;;;7.00;99.90;;;;;;4987824;28;20191;-86
2022/01/19 13:05:51;;;;;;;14.63;10.60;;;7.00;99.90;;;;;;4989178;28;20192;-89
2022/01/19 13:08:35;;;;;;;14.00;9.10;;;7.20;99.90;;;;;;4986373;28;20262;-88
2022/01/19 13:11:07;;;;;;;14.00;9.55;;;7.60;99.90;;;;;;4990327;28;20196;-87
2022/01/19 13:13:49;;;;;;;12.57;9.07;;;7.00;99.90;;;;;;4991937;28;20326;-87
2022/01/19 13:16:29;;;;;;;12.88;8.60;;;7.00;99.90;;;;;;4983502;28;20638;-87
2022/01/19 13:19:03;;;;;;;16.08;10.80;;;7.10;99.90;;;;;;4982690;28;20315;-88
2022/01/19 13:21:30;;;;;;;17.30;9.80;;;6.70;99.90;;;;;;4992155;28;20214;-87
2022/01/19 13:24:01;;;;;;;13.95;9.13;;;7.20;99.90;;;;;;4980562;28;20215;-88
2022/01/19 13:26:38;;;;;;;16.02;9.60;;;6.90;99.90;;;;;;4981123;28;20192;-88
2022/01/19 13:29:25;;;;;;;21.77;8.52;;;7.00;99.90;;;;;;4983079;28;20231;-88
2022/01/19 13:32:10;;;;;;;14.30;9.32;;;7.20;99.90;;;;;;4981277;28;20204;-88
2022/01/19 13:34:54;;;;;;;12.82;9.13;;;7.10;99.90;;;;;;4987199;28;20237;-87
2022/01/19 13:37:23;;;;;;;14.15;8.93;;;6.80;99.90;;;;;;4985552;28;20275;-87
2022/01/19 13:40:00;;;;;;;16.48;9.98;;;7.20;99.90;;;;;;4985394;28;20584;-87
2022/01/19 13:42:41;;;;;;;14.70;9.70;;;7.30;99.90;;;;;;4986876;28;20192;-86
2022/01/19 13:45:13;;;;;;;13.48;9.02;;;7.40;99.90;;;;;;4987502;28;20203;-87
2022/01/19 13:48:04;;;;;;;14.50;8.45;;;7.00;99.90;;;;;;4986126;28;20322;-87
2022/01/19 13:51:00;;;;;;;14.52;8.85;;;7.30;99.90;;;;;;5024629;23;20306;-85
2022/01/19 13:57:43;;;;;;;14.77;9.15;;;7.40;99.90;;;;;;4983370;28;20199;-87
2022/01/19 14:01:07;;;;;;;;;;;;;;;;;;;;;
2022/01/19 14:55:01;;;;;;;8.75;6.10;;;8.00;99.90;;;;;;4841172;29;20248;-86
2022/01/19 15:59:37;;;;;;;12.52;8.30;;;7.10;99.90;;;;;;4970530;29;20232;-88
2022/01/19 16:02:04;;;;;;;13.32;8.27;;;7.30;99.90;;;;;;4964100;29;20677;-87
2022/01/19 16:04:31;;;;;;;13.88;8.52;;;7.20;99.90;;;;;;4963054;29;20211;-88
2022/01/19 16:07:00;;;;;;;12.00;8.27;;;7.10;99.90;;;;;;4963267;28;20275;-87
2022/01/19 16:09:27;;;;;;;13.27;9.18;;;6.70;99.90;;;;;;4961469;28;20763;-87
2022/01/19 16:11:54;;;;;;;14.07;9.35;;;7.20;99.90;;;;;;4963026;28;20240;-87
2022/01/19 16:14:22;;;;;;;14.95;8.82;;;6.70;99.90;;;;;;4963601;29;20240;-87
2022/01/19 16:16:50;;;;;;;14.52;9.40;;;7.30;99.90;;;;;;4963965;29;20217;-86
2022/01/19 16:19:17;;;;;;;14.30;8.70;;;6.80;99.90;;;;;;4962727;28;20227;-87
2022/01/19 16:21:44;;;;;;;14.90;10.43;;;6.70;99.90;;;;;;4963620;29;20660;-88
2022/01/19 16:26:57;;;;;;;13.52;8.70;;;7.10;99.90;;;;;;4961419;28;20199;-87
2022/01/19 16:29:25;;;;;;;14.75;9.10;;;7.00;99.90;;;;;;4964131;29;20749;-86
2022/01/19 16:31:59;;;;;;;15.02;9.52;;;6.70;99.90;;;;;;4964111;29;20225;-88
2022/01/19 16:34:31;;;;;;;13.85;8.77;;;6.50;99.90;;;;;;4962775;28;20346;-87
2022/01/19 16:37:22;;;;;;;17.48;8.88;;;6.80;99.90;;;;;;4964384;29;20196;-88
2022/01/19 16:39:55;;;;;;;13.02;8.85;;;6.80;99.90;;;;;;4971279;29;20246;-87
2022/01/19 16:42:27;;;;;;;14.88;8.65;;;6.90;99.90;;;;;;4969326;29;20197;-87
2022/01/19 16:45:15;;;;;;;14.35;9.43;;;6.90;99.90;;;;;;4968932;29;20392;-89
2022/01/19 16:50:51;;;;;;;15.65;9.52;;;6.90;99.90;;;;;;4997626;23;20239;-89
2022/01/19 16:53:47;;;;;;;14.85;9.77;;;7.00;99.90;;;;;;5006144;28;20214;-89
2022/01/19 16:59:37;;;;;;;16.90;9.38;;;6.80;99.90;;;;;;4935322;28;20650;-88
2022/01/19 17:02:07;;;;;;;13.70;9.18;;;6.50;99.90;;;;;;5001866;28;20210;-86
2022/01/19 17:04:42;;;;;;;12.95;8.00;;;6.40;99.90;;;;;;5010798;28;20277;-87
2022/01/19 17:07:10;;;;;;;15.18;9.50;;;6.40;99.90;;;;;;5000338;28;20211;-87
2022/01/19 17:10:22;;;;;;;16.65;9.20;;;6.80;99.90;;;;;;5001510;28;20234;-86
2022/01/19 17:13:16;;;;;;;15.68;8.95;;;6.80;99.90;;;;;;4939401;29;20593;-85
2022/01/19 17:31:37;;;;;;;18.48;8.15;;;6.90;99.90;;;;;;4971530;28;20241;-86
2022/01/19 17:34:55;;;;;;;11.18;7.75;;;6.60;99.90;;;;;;4989889;28;20299;-87
2022/01/19 17:37:47;;;;;;;13.23;8.25;;;6.90;99.90;;;;;;4999434;28;20227;-87
2022/01/19 17:54:11;;;;;;;11.27;7.45;;;7.20;99.90;;;;;;4883170;29;20230;-87
2022/01/19 17:56:39;;;;;;;12.80;7.93;;;7.20;99.90;;;;;;4956656;28;20250;-86
2022/01/19 17:59:09;;;;;;;12.80;7.55;;;7.00;99.90;;;;;;5000032;28;20541;-87
2022/01/19 18:04:29;;;;;;;10.77;7.15;;;7.30;99.90;;;;;;4999476;28;20230;-86
2022/01/19 18:06:56;;;;;;;10.73;5.95;;;7.40;99.90;;;;;;5001125;28;20269;-86
2022/01/19 18:09:23;;;;;;;12.90;7.30;;;7.40;99.90;;;;;;5001688;28;20235;-87
2022/01/19 18:12:31;;;;;;;13.27;6.95;;;7.10;99.90;;;;;;5002780;28;20257;-87
2022/01/19 18:14:58;;;;;;;15.02;6.60;;;7.50;99.90;;;;;;5006304;28;20240;-89
2022/01/19 18:17:31;;;;;;;9.73;5.90;;;7.40;99.90;;;;;;5007282;28;20242;-88
2022/01/19 18:19:59;;;;;;;20.38;9.95;;;7.30;99.90;;;;;;5004557;28;20341;-87
2022/01/19 19:50:37;;;;;;;13.07;7.53;;;7.40;99.90;;;;;;1471310;23;20546;-85
2022/01/19 19:53:07;;;;;;;12.00;7.28;;;7.40;99.90;;;;;;4983232;28;20245;-88
2022/01/19 19:55:34;;;;;;;9.68;5.75;;;7.30;99.90;;;;;;4984652;28;20218;-89
2022/01/19 19:58:02;;;;;;;12.43;7.15;;;7.20;99.90;;;;;;4987191;28;20297;-88
2022/01/19 20:00:32;;;;;;;11.90;6.60;;;6.90;99.90;;;;;;4987069;28;20215;-89
2022/01/19 20:03:03;;;;;;;10.20;5.70;;;7.20;99.90;;;;;;4998258;28;20192;-87
2022/01/19 20:05:31;;;;;;;9.25;6.25;;;7.20;99.90;;;;;;4989285;28;20207;-89
2022/01/19 20:08:13;;;;;;;;;;;;;;;;;;;;;